Portada
METAR-TAF:

METAR-TAF

Aeroports :

Nouakchott, Mauritània

latitud: 18-18-36N, longitud: 015-58-11W, altitud: 3 m

Observació

L'informe es va fer fa 35 minuts, a les 00:00 UTC
Vent 9 kt del Nord/Nord-Oest
Temperatura 25°C
Humitat 89%
Pressió 1015 hPa
Visibilitat: 8000 m
Escasses núvols a una alçada de 1000 ft

METAR: GQNO 160000Z 34009KT 8000 FEW010 25/23 Q1015 NOSIG

Hora: 00:35 (00:35 UTC)

Pronòstic

L'informe es va fer fa 1 hora i 35 minuts, a les 23:00 UTC
Pronòstic vàlid del 16 a les 00 UTC al 17 a les 06 UTC
Vent 12 kt del Nord-Oest
Visibilitat: 7000 m
Temporalment
l' 16 a les 04 UTC al 16 a les 09 UTC
Cel ennuvolat a una alçada de 800 ft

TAF: GQNO 152300Z 1600/1706 32012KT 7000 NSC TEMPO 1604/1609 BKN008

Observacions i pronòstics meteorològics de més de 4000 aeroports (METAR i TAF).

Les estacions disponibles són els punts grocs i vermells al mapa.

Posi el ratolí al punt desitjat per veure el nom de l'estació.

Feu clic per veure les observacions i els pronòstics meteorològics.

Per canviar el mapa: feu clic els botons verds amb una creu de color negre per apropar; al botó verd amb un guió per allunyar la imatge; o en les fletxes verdes per a mapes adjacents.


METAR-TAF: